createdAt,value
2019-03-05T00:00:07.996Z,970.31
2019-03-05T00:01:06.778Z,970.18
2019-03-05T00:02:02.566Z,970.27
2019-03-05T00:03:10.166Z,970.33
2019-03-05T00:04:03.729Z,970.29
2019-03-05T00:05:02.400Z,970.34
2019-03-05T00:05:58.252Z,970.45
2019-03-05T00:06:59.673Z,970.24
2019-03-05T00:08:03.725Z,970.34
2019-03-05T00:09:04.813Z,970.29
2019-03-05T00:10:08.163Z,970.27
2019-03-05T00:11:06.947Z,970.26
2019-03-05T00:12:06.296Z,970.29
2019-03-05T00:13:04.178Z,970.22
2019-03-05T00:14:05.640Z,970.22
2019-03-05T00:15:07.578Z,970.27
2019-03-05T00:16:07.532Z,970.20
2019-03-05T00:16:55.852Z,970.25
2019-03-05T00:17:59.612Z,970.24
2019-03-05T00:19:05.353Z,970.27
2019-03-05T00:19:55.420Z,970.28
2019-03-05T00:20:54.282Z,970.30
2019-03-05T00:22:03.137Z,970.34
2019-03-05T00:22:53.534Z,970.45
2019-03-05T00:23:58.127Z,970.58
2019-03-05T00:24:50.408Z,970.51
2019-03-05T00:25:50.331Z,970.51
2019-03-05T00:26:50.330Z,970.52
2019-03-05T00:28:01.134Z,970.72
2019-03-05T00:28:50.630Z,970.77
2019-03-05T00:29:50.164Z,970.81
2019-03-05T00:30:59.900Z,970.81
2019-03-05T00:31:59.799Z,970.78
2019-03-05T00:33:01.921Z,970.68
2019-03-05T00:33:59.912Z,970.73
2019-03-05T00:35:00.703Z,970.66
2019-03-05T00:36:03.559Z,970.63
2019-03-05T00:37:16.631Z,970.70
2019-03-05T00:38:10.187Z,970.84
2019-03-05T00:39:04.275Z,970.94
2019-03-05T00:39:58.645Z,971.03
2019-03-05T00:41:04.631Z,971.15
2019-03-05T00:41:49.671Z,971.16
2019-03-05T00:42:49.623Z,971.20
2019-03-05T00:43:49.576Z,971.32
2019-03-05T00:44:49.534Z,971.49
2019-03-05T00:45:49.492Z,971.36
2019-03-05T00:46:49.450Z,971.35
2019-03-05T00:47:49.414Z,971.36
2019-03-05T00:48:49.370Z,971.32
2019-03-05T00:49:49.333Z,971.38
2019-03-05T00:50:49.289Z,971.28
2019-03-05T00:51:49.242Z,971.26
2019-03-05T00:52:49.219Z,971.20
2019-03-05T00:53:49.158Z,971.22
2019-03-05T00:54:49.114Z,971.22
2019-03-05T00:55:49.932Z,971.24
2019-03-05T00:56:49.032Z,971.16
2019-03-05T00:57:48.996Z,971.19
2019-03-05T00:58:48.945Z,971.27
2019-03-05T00:59:48.908Z,971.10
2019-03-05T01:00:48.863Z,970.94
2019-03-05T01:01:48.823Z,970.95
2019-03-05T01:02:48.783Z,970.94
2019-03-05T01:03:48.880Z,970.80
2019-03-05T01:04:48.738Z,970.77
2019-03-05T01:05:51.845Z,970.82
2019-03-05T01:06:56.759Z,970.80
2019-03-05T01:07:57.790Z,970.74
2019-03-05T01:08:49.141Z,970.74
2019-03-05T01:09:53.672Z,970.70
2019-03-05T01:10:56.268Z,970.61
2019-03-05T01:11:59.105Z,970.59
2019-03-05T01:12:59.417Z,970.61
2019-03-05T01:13:48.437Z,970.53
2019-03-05T01:14:55.459Z,970.58
2019-03-05T01:15:59.622Z,970.56
2019-03-05T01:16:56.081Z,970.53
2019-03-05T01:17:57.720Z,970.50
2019-03-05T01:19:03.692Z,970.43
2019-03-05T01:20:02.425Z,970.43
2019-03-05T01:20:59.609Z,970.39
2019-03-05T01:22:01.208Z,970.41
2019-03-05T01:22:57.812Z,970.37
2019-03-05T01:23:58.834Z,970.45
2019-03-05T01:25:13.265Z,970.41
2019-03-05T01:25:56.975Z,970.44
2019-03-05T01:26:57.836Z,970.42
2019-03-05T01:27:58.116Z,970.43
2019-03-05T01:28:48.160Z,970.48
2019-03-05T01:29:49.022Z,970.44
2019-03-05T01:30:47.978Z,970.50
2019-03-05T01:31:57.509Z,970.51
2019-03-05T01:32:57.034Z,970.49
2019-03-05T01:33:56.640Z,970.42
2019-03-05T01:34:59.902Z,970.52
2019-03-05T01:36:02.280Z,970.51
2019-03-05T01:36:58.897Z,970.55
2019-03-05T01:37:58.704Z,970.49
2019-03-05T01:38:58.895Z,970.53
2019-03-05T01:39:58.690Z,970.49
2019-03-05T01:40:55.716Z,970.52
2019-03-05T01:42:02.616Z,970.59
2019-03-05T01:42:57.442Z,970.56
2019-03-05T01:43:58.075Z,970.55
2019-03-05T01:44:59.570Z,970.53
2019-03-05T01:46:00.202Z,970.52
2019-03-05T01:46:56.876Z,970.54
2019-03-05T01:47:59.067Z,970.50
2019-03-05T01:48:57.741Z,970.45
2019-03-05T01:49:55.296Z,970.46
2019-03-05T01:51:01.240Z,970.47
2019-03-05T01:51:54.348Z,970.52
2019-03-05T01:52:58.597Z,970.49
2019-03-05T01:54:18.645Z,970.51
2019-03-05T01:54:47.355Z,970.58
2019-03-05T01:55:59.220Z,970.48
2019-03-05T01:56:56.264Z,970.48
2019-03-05T01:57:53.700Z,970.48
2019-03-05T01:58:57.395Z,970.42
2019-03-05T02:00:06.603Z,970.44
2019-03-05T02:01:02.554Z,970.43
2019-03-05T02:02:00.772Z,970.45
2019-03-05T02:02:56.356Z,970.47
2019-03-05T02:03:58.012Z,970.45
2019-03-05T02:04:53.228Z,970.46
2019-03-05T02:05:55.759Z,970.40
2019-03-05T02:06:56.270Z,970.44
2019-03-05T02:07:58.718Z,970.34
2019-03-05T02:08:58.184Z,970.47
2019-03-05T02:09:56.340Z,970.39
2019-03-05T02:10:58.658Z,970.36
2019-03-05T02:12:03.650Z,970.38
2019-03-05T02:13:18.082Z,970.41
2019-03-05T02:14:01.662Z,970.38
2019-03-05T02:14:57.408Z,970.38
2019-03-05T02:15:58.566Z,970.37
2019-03-05T02:16:58.849Z,970.35
2019-03-05T02:18:55.474Z,970.34
2019-03-05T02:20:03.736Z,970.37
2019-03-05T02:21:01.937Z,970.38
2019-03-05T02:24:05.870Z,970.37
2019-03-05T02:49:16.098Z,970.46
2019-03-05T02:50:19.485Z,970.59
2019-03-05T03:01:12.238Z,970.56
2019-03-05T03:02:04.646Z,970.52
2019-03-05T03:22:37.348Z,970.41
2019-03-05T03:24:17.726Z,970.40
2019-03-05T03:27:24.072Z,970.32
2019-03-05T03:58:48.135Z,970.46
2019-03-05T04:02:00.075Z,970.49
2019-03-05T04:05:20.647Z,970.47
2019-03-05T04:07:58.286Z,970.45
2019-03-05T04:10:23.021Z,970.39
2019-03-05T04:11:32.658Z,970.34
2019-03-05T04:12:22.867Z,970.38
2019-03-05T04:13:35.885Z,970.39
2019-03-05T04:14:39.923Z,970.38
2019-03-05T04:15:37.519Z,970.39
2019-03-05T04:16:34.776Z,970.34
2019-03-05T04:17:40.846Z,970.33
2019-03-05T04:18:37.406Z,970.44
2019-03-05T04:19:32.187Z,970.41
2019-03-05T04:20:36.442Z,970.42
2019-03-05T04:21:32.511Z,970.39
2019-03-05T04:22:38.267Z,970.35
2019-03-05T04:23:36.227Z,970.47
2019-03-05T04:24:29.047Z,970.41
2019-03-05T04:25:30.180Z,970.45
2019-03-05T04:26:28.801Z,970.34
2019-03-05T04:27:33.918Z,970.39
2019-03-05T04:28:31.172Z,970.45
2019-03-05T04:29:32.285Z,970.51
2019-03-05T04:30:32.379Z,970.45
2019-03-05T04:31:31.440Z,970.43
2019-03-05T04:32:35.630Z,970.46
2019-03-05T04:33:37.431Z,970.50
2019-03-05T04:34:41.499Z,970.50
2019-03-05T04:35:24.594Z,970.44
2019-03-05T04:36:26.460Z,970.53
2019-03-05T04:37:21.221Z,970.52
2019-03-05T04:38:21.180Z,970.52
2019-03-05T04:39:21.295Z,970.45
2019-03-05T04:40:24.567Z,970.46
2019-03-05T04:41:23.769Z,970.46
2019-03-05T04:42:22.940Z,970.50
2019-03-05T04:43:21.000Z,970.46
2019-03-05T04:44:20.928Z,970.38
2019-03-05T04:45:20.886Z,970.47
2019-03-05T04:46:21.016Z,970.50
2019-03-05T04:47:28.204Z,970.50
2019-03-05T04:48:26.257Z,970.52
2019-03-05T04:49:26.700Z,970.54
2019-03-05T04:50:29.124Z,970.44
2019-03-05T04:51:21.779Z,970.50
2019-03-05T04:52:24.078Z,970.47
2019-03-05T04:53:24.074Z,970.47
2019-03-05T04:54:24.506Z,970.43
2019-03-05T04:55:20.782Z,970.44
2019-03-05T04:56:21.561Z,970.39
2019-03-05T04:57:24.831Z,970.28
2019-03-05T04:58:27.345Z,970.45
2019-03-05T04:59:23.524Z,970.46
2019-03-05T05:00:24.903Z,970.49
2019-03-05T05:01:21.021Z,970.34
2019-03-05T05:02:26.560Z,970.44
2019-03-05T05:03:26.034Z,970.42
2019-03-05T05:04:26.634Z,970.36
2019-03-05T05:05:21.169Z,970.41
2019-03-05T05:06:20.062Z,970.39
2019-03-05T05:07:26.970Z,970.44
2019-03-05T05:08:20.240Z,970.40
2019-03-05T05:09:27.078Z,970.46
2019-03-05T05:10:20.013Z,970.40
2019-03-05T05:11:27.822Z,970.42
2019-03-05T05:12:24.202Z,970.42
2019-03-05T05:13:19.824Z,970.38
2019-03-05T05:14:23.939Z,970.45
2019-03-05T05:15:21.260Z,970.32
2019-03-05T05:16:19.710Z,970.44
2019-03-05T05:17:19.619Z,970.34
2019-03-05T05:18:24.634Z,970.46
2019-03-05T05:19:24.042Z,970.49
2019-03-05T05:20:19.545Z,970.38
2019-03-05T05:21:24.349Z,970.39
2019-03-05T05:22:25.604Z,970.43
2019-03-05T05:23:23.229Z,970.44
2019-03-05T05:24:23.058Z,970.49
2019-03-05T05:25:25.014Z,970.43
2019-03-05T05:26:25.044Z,970.43
2019-03-05T05:27:19.160Z,970.44
2019-03-05T05:28:26.497Z,970.41
2019-03-05T05:29:19.146Z,970.38
2019-03-05T05:30:19.051Z,970.46
2019-03-05T05:31:19.161Z,970.44
2019-03-05T05:32:22.486Z,970.33
2019-03-05T05:33:18.993Z,970.39
2019-03-05T05:34:19.301Z,970.45
2019-03-05T05:35:19.069Z,970.47
2019-03-05T05:36:21.308Z,970.39
2019-03-05T05:37:19.113Z,970.28
2019-03-05T05:38:20.259Z,970.33
2019-03-05T05:39:18.663Z,970.45
2019-03-05T05:40:19.879Z,970.35
2019-03-05T05:41:20.219Z,970.37
2019-03-05T05:42:18.507Z,970.30
2019-03-05T05:43:18.488Z,970.38
2019-03-05T05:44:20.147Z,970.37
2019-03-05T05:45:20.894Z,970.28
2019-03-05T05:46:26.683Z,970.32
2019-03-05T05:47:18.407Z,970.36
2019-03-05T05:48:18.257Z,970.38
2019-03-05T05:49:18.251Z,970.43
2019-03-05T05:50:25.221Z,970.40
2019-03-05T05:51:18.830Z,970.40
2019-03-05T05:52:19.418Z,970.40
2019-03-05T05:53:26.024Z,970.37
2019-03-05T05:54:18.239Z,970.52
2019-03-05T05:55:22.496Z,970.43
2019-03-05T05:56:25.579Z,970.42
2019-03-05T05:57:22.677Z,970.42
2019-03-05T05:58:26.016Z,970.46
2019-03-05T05:59:25.355Z,970.44
2019-03-05T06:00:27.324Z,970.55
2019-03-05T06:01:18.584Z,970.51
2019-03-05T06:02:22.559Z,970.54
2019-03-05T06:03:20.666Z,970.49
2019-03-05T06:04:23.057Z,970.51
2019-03-05T06:05:18.686Z,970.52
2019-03-05T06:06:17.925Z,970.50
2019-03-05T06:07:17.504Z,970.50
2019-03-05T06:08:28.174Z,970.41
2019-03-05T06:09:25.029Z,970.53
2019-03-05T06:10:25.930Z,970.54
2019-03-05T06:11:24.549Z,970.60
2019-03-05T06:12:26.880Z,970.61
2019-03-05T06:13:19.444Z,970.55
2019-03-05T06:14:26.718Z,970.62
2019-03-05T06:15:27.342Z,970.66
2019-03-05T06:16:17.836Z,970.57
2019-03-05T06:17:18.833Z,970.60
2019-03-05T06:18:17.572Z,970.56
2019-03-05T06:19:23.190Z,970.54
2019-03-05T06:20:23.531Z,970.56
2019-03-05T06:21:21.820Z,970.55
2019-03-05T06:22:23.965Z,970.42
2019-03-05T06:23:17.976Z,970.58
2019-03-05T06:24:25.743Z,970.55
2019-03-05T06:25:17.045Z,970.51
2019-03-05T06:26:26.551Z,970.58
2019-03-05T06:27:26.287Z,970.52
2019-03-05T06:28:25.616Z,970.54
2019-03-05T06:29:28.522Z,970.56
2019-03-05T06:30:17.802Z,970.52
2019-03-05T06:31:16.490Z,970.62
2019-03-05T06:32:18.608Z,970.55
2019-03-05T06:33:27.913Z,970.63
2019-03-05T06:34:22.691Z,970.62
2019-03-05T06:35:21.571Z,970.62
2019-03-05T06:36:16.947Z,970.55
2019-03-05T06:37:16.335Z,970.60
2019-03-05T06:38:16.247Z,970.55
2019-03-05T06:39:21.724Z,970.60
2019-03-05T06:40:23.720Z,970.54
2019-03-05T06:41:34.789Z,970.48
2019-03-05T06:42:19.954Z,970.47
2019-03-05T06:43:23.048Z,970.49
2019-03-05T06:44:20.875Z,970.45
2019-03-05T06:45:18.021Z,970.42
2019-03-05T06:46:22.536Z,970.44
2019-03-05T06:47:17.074Z,970.42
2019-03-05T06:48:20.050Z,970.41
2019-03-05T06:49:16.511Z,970.49
2019-03-05T06:50:15.700Z,970.46
2019-03-05T06:51:16.344Z,970.49
2019-03-05T06:52:16.311Z,970.35
2019-03-05T06:53:16.083Z,970.45
2019-03-05T06:54:15.829Z,970.42
2019-03-05T06:55:15.541Z,970.45
2019-03-05T06:56:15.774Z,970.34
2019-03-05T06:57:20.317Z,970.47
2019-03-05T06:58:16.033Z,970.46
2019-03-05T06:59:15.352Z,970.41
2019-03-05T07:00:15.821Z,970.50
2019-03-05T07:01:18.564Z,970.49
2019-03-05T07:02:22.316Z,970.47
2019-03-05T07:03:15.532Z,970.51
2019-03-05T07:04:21.918Z,970.55
2019-03-05T07:05:15.642Z,970.54
2019-03-05T07:06:15.007Z,970.55
2019-03-05T07:07:15.935Z,970.54
2019-03-05T07:08:15.029Z,970.53
2019-03-05T07:09:14.881Z,970.67
2019-03-05T07:10:15.188Z,970.62
2019-03-05T07:11:14.829Z,970.75
2019-03-05T07:12:15.214Z,970.71
2019-03-05T07:13:18.243Z,970.76
2019-03-05T07:14:14.971Z,970.74
2019-03-05T07:15:14.749Z,970.76
2019-03-05T07:16:15.094Z,970.78
2019-03-05T07:17:18.144Z,970.85
2019-03-05T07:18:15.529Z,970.88
2019-03-05T07:19:19.073Z,970.93
2019-03-05T07:20:23.041Z,970.92
2019-03-05T07:21:20.967Z,970.92
2019-03-05T07:22:21.278Z,970.89
2019-03-05T07:23:17.619Z,970.88
2019-03-05T07:24:16.535Z,970.84
2019-03-05T07:25:14.644Z,970.90
2019-03-05T07:26:14.169Z,970.90
2019-03-05T07:27:21.978Z,970.93
2019-03-05T07:28:23.005Z,970.91
2019-03-05T07:29:22.115Z,970.94
2019-03-05T07:30:23.558Z,970.95
2019-03-05T07:31:18.359Z,971.00
2019-03-05T07:32:19.035Z,970.98
2019-03-05T07:33:20.540Z,970.97
2019-03-05T07:34:19.408Z,971.01
2019-03-05T07:35:20.212Z,970.95
2019-03-05T07:36:23.060Z,970.96
2019-03-05T07:37:21.368Z,970.99
2019-03-05T07:38:20.140Z,971.03
2019-03-05T07:39:21.198Z,971.10
2019-03-05T07:40:18.660Z,971.12
2019-03-05T07:41:13.753Z,971.10
2019-03-05T07:42:14.860Z,971.16
2019-03-05T07:43:20.452Z,971.17
2019-03-05T07:44:21.377Z,971.26
2019-03-05T07:45:20.010Z,971.17
2019-03-05T07:46:17.886Z,971.16
2019-03-05T07:47:15.246Z,971.14
2019-03-05T07:48:19.023Z,971.17
2019-03-05T07:49:20.549Z,971.20
2019-03-05T07:50:24.395Z,971.20
2019-03-05T07:51:13.920Z,971.22
2019-03-05T07:52:18.180Z,971.21
2019-03-05T07:53:18.398Z,971.22
2019-03-05T07:54:19.973Z,971.19
2019-03-05T07:55:20.397Z,971.16
2019-03-05T07:56:12.943Z,971.22
2019-03-05T07:57:13.625Z,971.21
2019-03-05T07:58:20.136Z,971.23
2019-03-05T07:59:16.444Z,971.23
2019-03-05T08:00:14.021Z,971.25
2019-03-05T08:01:21.840Z,971.29
2019-03-05T08:02:13.700Z,971.36
2019-03-05T08:03:12.986Z,971.37
2019-03-05T08:04:13.206Z,971.36
2019-03-05T08:05:14.295Z,971.41
2019-03-05T08:06:17.571Z,971.36
2019-03-05T08:07:18.188Z,971.32
2019-03-05T08:08:26.190Z,971.31
2019-03-05T08:09:22.846Z,971.39
2019-03-05T08:10:15.122Z,971.38
2019-03-05T08:11:15.593Z,971.41
2019-03-05T08:12:18.928Z,971.39
2019-03-05T08:13:17.287Z,971.42
2019-03-05T08:14:19.972Z,971.51
2019-03-05T08:15:14.125Z,971.41
2019-03-05T08:16:18.114Z,971.46
2019-03-05T08:17:14.593Z,971.47
2019-03-05T08:18:12.001Z,971.53
2019-03-05T08:19:18.273Z,971.51
2019-03-05T08:20:16.124Z,971.56
2019-03-05T08:21:12.534Z,971.52
2019-03-05T08:22:12.934Z,971.48
2019-03-05T08:23:13.347Z,971.53
2019-03-05T08:24:11.748Z,971.48
2019-03-05T08:25:12.143Z,971.55
2019-03-05T08:26:15.952Z,971.54
2019-03-05T08:27:19.551Z,971.56
2019-03-05T08:28:12.158Z,971.58
2019-03-05T08:29:11.575Z,971.48
2019-03-05T08:30:14.688Z,971.54
2019-03-05T08:31:11.519Z,971.47
2019-03-05T08:32:11.809Z,971.56
2019-03-05T08:33:11.475Z,971.64
2019-03-05T08:34:11.334Z,971.63
2019-03-05T08:35:13.459Z,971.55
2019-03-05T08:36:11.370Z,971.59
2019-03-05T08:37:17.468Z,971.52
2019-03-05T08:38:20.996Z,971.58
2019-03-05T08:39:18.649Z,971.56
2019-03-05T08:40:11.482Z,971.59
2019-03-05T08:41:11.103Z,971.60
2019-03-05T08:42:11.003Z,971.64
2019-03-05T08:43:11.985Z,971.65
2019-03-05T08:44:10.912Z,971.70
2019-03-05T08:45:11.509Z,971.54
2019-03-05T08:46:12.953Z,971.63
2019-03-05T08:47:12.804Z,971.58
2019-03-05T08:48:10.957Z,971.51
2019-03-05T08:49:10.726Z,971.62
2019-03-05T08:50:10.686Z,971.76
2019-03-05T08:51:10.641Z,971.68
2019-03-05T08:52:10.653Z,971.78
2019-03-05T08:53:10.630Z,971.73
2019-03-05T08:54:10.862Z,971.69
2019-03-05T08:55:13.024Z,971.62
2019-03-05T08:56:12.769Z,971.65
2019-03-05T08:57:10.679Z,971.73
2019-03-05T08:58:10.437Z,971.67
2019-03-05T08:59:10.412Z,971.70
2019-03-05T09:00:10.260Z,971.77
2019-03-05T09:01:13.155Z,971.73
2019-03-05T09:02:11.209Z,971.79
2019-03-05T09:03:10.368Z,971.88
2019-03-05T09:04:14.600Z,971.91
2019-03-05T09:05:10.032Z,971.93
2019-03-05T09:06:11.362Z,971.97
2019-03-05T09:07:09.986Z,971.95
2019-03-05T09:08:09.992Z,971.91
2019-03-05T09:09:10.654Z,972.04
2019-03-05T09:10:09.852Z,972.01
2019-03-05T09:11:09.779Z,972.01
2019-03-05T09:12:13.984Z,972.00
2019-03-05T09:13:09.853Z,971.97
2019-03-05T09:14:09.879Z,972.02
2019-03-05T09:15:09.624Z,972.08
2019-03-05T09:16:10.391Z,972.02
2019-03-05T09:17:09.527Z,972.01
2019-03-05T09:18:09.505Z,972.01
2019-03-05T09:19:09.866Z,972.01
2019-03-05T09:20:09.404Z,972.06
2019-03-05T09:21:09.487Z,972.02
2019-03-05T09:22:09.326Z,972.06
2019-03-05T09:23:09.778Z,972.11
2019-03-05T09:24:10.173Z,972.09
2019-03-05T09:25:09.267Z,972.07
2019-03-05T09:26:09.155Z,972.07
2019-03-05T09:27:09.123Z,972.09
2019-03-05T09:28:09.097Z,972.12
2019-03-05T09:29:09.028Z,972.17
2019-03-05T09:30:09.444Z,972.18
2019-03-05T09:31:08.952Z,972.19
2019-03-05T09:32:08.914Z,972.19
2019-03-05T09:33:08.872Z,972.20
2019-03-05T09:34:09.658Z,972.22
2019-03-05T09:35:08.783Z,972.20
2019-03-05T09:36:09.657Z,972.21
2019-03-05T09:37:09.323Z,972.21
2019-03-05T09:38:08.670Z,972.25
2019-03-05T09:39:09.261Z,972.29
2019-03-05T09:40:08.593Z,972.32
2019-03-05T09:41:08.662Z,972.24
2019-03-05T09:42:08.658Z,972.29
2019-03-05T09:43:08.592Z,972.28
2019-03-05T09:57:02.584Z,972.42
2019-03-05T09:58:07.986Z,972.41
2019-03-05T09:59:02.428Z,972.47
2019-03-05T10:00:02.375Z,972.40
2019-03-05T10:01:02.379Z,972.41
2019-03-05T10:02:02.523Z,972.44
2019-03-05T10:03:02.266Z,972.38
2019-03-05T10:04:02.205Z,972.37
2019-03-05T10:05:02.157Z,972.38
2019-03-05T10:06:02.119Z,972.48
2019-03-05T10:07:02.227Z,972.52
2019-03-05T10:08:02.047Z,972.53
2019-03-05T10:09:02.025Z,972.66
2019-03-05T10:10:02.487Z,972.65
2019-03-05T10:11:01.914Z,972.65
2019-03-05T10:12:01.881Z,972.71
2019-03-05T10:13:04.380Z,972.65
2019-03-05T10:14:01.866Z,972.57
2019-03-05T10:15:08.048Z,972.62
2019-03-05T10:16:01.748Z,972.56
2019-03-05T10:17:01.668Z,972.56
2019-03-05T10:18:11.725Z,972.58
2019-03-05T10:19:01.590Z,972.55
2019-03-05T10:20:01.727Z,972.55
2019-03-05T10:21:01.736Z,972.59
2019-03-05T10:22:01.498Z,972.61
2019-03-05T10:23:01.444Z,972.62
2019-03-05T10:24:10.164Z,972.66
2019-03-05T10:25:06.035Z,972.65
2019-03-05T10:26:01.282Z,972.63
2019-03-05T10:27:01.244Z,972.66
2019-03-05T10:28:01.237Z,972.65
2019-03-05T10:29:01.214Z,972.68
2019-03-05T10:30:01.124Z,972.70
2019-03-05T10:31:04.470Z,972.67
2019-03-05T10:32:01.348Z,972.70
2019-03-05T10:33:01.020Z,972.75
2019-03-05T10:34:00.980Z,972.66
2019-03-05T10:35:01.103Z,972.72
2019-03-05T10:36:00.900Z,972.72
2019-03-05T10:37:12.011Z,972.68
2019-03-05T10:38:01.102Z,972.71
2019-03-05T10:39:00.752Z,972.68
2019-03-05T10:40:00.707Z,972.72
2019-03-05T10:41:00.669Z,972.69
2019-03-05T10:42:00.813Z,972.71
2019-03-05T10:43:08.429Z,972.72
2019-03-05T10:44:01.245Z,972.74
2019-03-05T10:45:06.528Z,972.72
2019-03-05T10:46:00.492Z,972.69
2019-03-05T10:47:06.191Z,972.69
2019-03-05T10:48:00.587Z,972.75
2019-03-05T10:49:04.221Z,972.71
2019-03-05T10:50:00.350Z,972.79
2019-03-05T10:51:00.983Z,972.80
2019-03-05T10:52:02.209Z,972.78
2019-03-05T10:53:00.652Z,972.87
2019-03-05T10:54:02.121Z,972.86
2019-03-05T10:55:00.437Z,972.81
2019-03-05T10:56:00.239Z,972.85
2019-03-05T10:57:00.334Z,972.94
2019-03-05T10:57:59.973Z,972.98
2019-03-05T10:58:59.933Z,972.90
2019-03-05T10:59:59.932Z,972.88
2019-03-05T11:01:01.029Z,972.90
2019-03-05T11:02:00.301Z,972.87
2019-03-05T11:03:00.837Z,972.97
2019-03-05T11:04:00.131Z,973.00
2019-03-05T11:04:59.698Z,972.95
2019-03-05T11:05:59.686Z,973.00
2019-03-05T11:07:00.298Z,973.00
2019-03-05T11:07:59.590Z,973.01
2019-03-05T11:08:59.516Z,973.07
2019-03-05T11:10:04.109Z,973.08
2019-03-05T11:11:13.169Z,973.06
2019-03-05T11:11:59.402Z,973.01
2019-03-05T11:13:01.385Z,973.05
2019-03-05T11:13:59.550Z,973.08
2019-03-05T11:15:06.899Z,972.95
2019-03-05T11:15:59.357Z,972.97
2019-03-05T11:17:02.822Z,973.05
2019-03-05T11:17:59.179Z,973.10
2019-03-05T11:19:00.479Z,973.01
2019-03-05T11:20:00.166Z,973.11
2019-03-05T11:20:59.134Z,973.04
2019-03-05T11:21:59.033Z,973.17
2019-03-05T11:22:58.954Z,973.13
2019-03-05T11:23:59.462Z,973.13
2019-03-05T11:24:59.194Z,973.15
2019-03-05T11:25:59.808Z,973.09
2019-03-05T11:26:59.044Z,973.18
2019-03-05T11:27:59.991Z,973.09
2019-03-05T11:29:02.254Z,973.18
2019-03-05T11:30:00.169Z,973.20
2019-03-05T11:31:00.702Z,973.19
2019-03-05T11:31:58.590Z,973.19
2019-03-05T11:32:58.550Z,973.17
2019-03-05T11:33:58.870Z,973.18
2019-03-05T11:35:04.943Z,973.12
2019-03-05T11:36:06.546Z,973.16
2019-03-05T11:37:00.499Z,973.19
2019-03-05T11:38:06.308Z,973.20
2019-03-05T11:38:58.670Z,973.22
2019-03-05T11:40:00.269Z,973.17
2019-03-05T11:40:59.124Z,973.16
2019-03-05T11:41:58.737Z,973.17
2019-03-05T11:42:58.689Z,973.21
2019-03-05T11:44:06.269Z,973.20
2019-03-05T11:45:07.143Z,973.18
2019-03-05T11:45:58.032Z,973.17
2019-03-05T11:47:01.390Z,973.28
2019-03-05T11:47:58.562Z,973.27
2019-03-05T11:49:06.716Z,973.34
2019-03-05T11:49:57.871Z,973.29
2019-03-05T11:50:57.829Z,973.23
2019-03-05T11:51:57.821Z,973.24
2019-03-05T11:52:58.073Z,973.32
2019-03-05T11:53:57.732Z,973.29
2019-03-05T11:54:57.667Z,973.38
2019-03-05T11:55:58.256Z,973.28
2019-03-05T11:57:01.444Z,973.32
2019-03-05T11:58:01.074Z,973.35
2019-03-05T11:59:04.180Z,973.38
2019-03-05T11:59:57.842Z,973.24
2019-03-05T12:00:57.496Z,973.35
2019-03-05T12:01:59.664Z,973.36
2019-03-05T12:02:57.451Z,973.50
2019-03-05T12:03:57.306Z,973.48
2019-03-05T12:04:57.277Z,973.41
2019-03-05T12:05:57.243Z,973.37
2019-03-05T12:07:03.196Z,973.38
2019-03-05T12:07:58.084Z,973.34
2019-03-05T12:08:57.124Z,973.26
2019-03-05T12:09:59.321Z,973.23
2019-03-05T12:10:57.748Z,973.24
2019-03-05T12:11:57.061Z,973.29
2019-03-05T12:12:57.591Z,973.36
2019-03-05T12:13:57.210Z,973.41
2019-03-05T12:14:57.062Z,973.39
2019-03-05T12:15:57.742Z,973.40
2019-03-05T12:17:01.936Z,973.40
2019-03-05T12:18:07.140Z,973.39
2019-03-05T12:19:04.110Z,973.42
2019-03-05T12:20:06.061Z,973.33
2019-03-05T12:20:57.448Z,973.40
2019-03-05T12:22:04.394Z,973.53
2019-03-05T12:22:57.245Z,973.46
2019-03-05T12:23:58.310Z,973.45
2019-03-05T12:24:57.684Z,973.36
2019-03-05T12:26:00.204Z,973.44
2019-03-05T12:26:56.460Z,973.47
2019-03-05T12:28:09.449Z,973.45
2019-03-05T12:28:56.311Z,973.46
2019-03-05T12:29:57.568Z,973.43
2019-03-05T12:30:57.371Z,973.51
2019-03-05T12:31:56.303Z,973.58
2019-03-05T12:32:59.792Z,973.47
2019-03-05T12:33:56.984Z,973.55
2019-03-05T12:35:01.252Z,973.54
2019-03-05T12:35:56.052Z,973.57
2019-03-05T12:37:02.214Z,973.62
2019-03-05T12:37:56.066Z,973.69
2019-03-05T12:38:55.917Z,973.55
2019-03-05T12:39:56.610Z,973.61
2019-03-05T12:40:59.630Z,973.66
2019-03-05T12:41:59.513Z,973.57
2019-03-05T12:42:56.083Z,973.61
2019-03-05T12:43:55.852Z,973.62
2019-03-05T12:44:55.704Z,973.51
2019-03-05T12:45:55.839Z,973.65
2019-03-05T12:46:55.599Z,973.57
2019-03-05T12:47:56.929Z,973.59
2019-03-05T12:48:55.574Z,973.73
2019-03-05T12:49:57.612Z,973.58
2019-03-05T12:50:56.020Z,973.60
2019-03-05T12:51:55.546Z,973.65
2019-03-05T12:52:55.439Z,973.62
2019-03-05T12:53:55.325Z,973.64
2019-03-05T12:54:56.284Z,973.71
2019-03-05T12:55:55.235Z,973.67
2019-03-05T12:56:56.255Z,973.65
2019-03-05T12:58:02.667Z,973.72
2019-03-05T12:58:55.122Z,973.64
2019-03-05T12:59:55.392Z,973.73
2019-03-05T13:00:57.114Z,973.59
2019-03-05T13:01:55.463Z,973.64
2019-03-05T13:02:55.061Z,973.61
2019-03-05T13:03:54.924Z,973.76
2019-03-05T13:04:55.189Z,973.69
2019-03-05T13:05:55.843Z,973.80
2019-03-05T13:06:54.806Z,973.63
2019-03-05T13:07:57.737Z,973.67
2019-03-05T13:08:55.096Z,973.71
2019-03-05T13:09:56.875Z,973.76
2019-03-05T13:10:55.580Z,973.76
2019-03-05T13:11:54.743Z,973.72
2019-03-05T13:12:54.598Z,973.79
2019-03-05T13:14:05.760Z,973.83
2019-03-05T13:14:54.720Z,973.77
2019-03-05T13:15:56.499Z,973.82
2019-03-05T13:16:54.443Z,973.77
2019-03-05T13:17:54.649Z,973.76
2019-03-05T13:18:54.704Z,973.84
2019-03-05T13:19:54.294Z,973.96
2019-03-05T13:20:54.260Z,973.83
2019-03-05T13:21:56.124Z,973.82
2019-03-05T13:22:59.324Z,973.77
2019-03-05T13:23:56.899Z,973.80
2019-03-05T13:24:57.665Z,973.83
2019-03-05T13:25:54.620Z,973.75
2019-03-05T13:26:54.046Z,973.87
2019-03-05T13:27:57.685Z,973.84
2019-03-05T13:28:54.088Z,973.84
2019-03-05T13:29:53.951Z,973.95
2019-03-05T13:30:55.974Z,973.88
2019-03-05T13:31:54.198Z,973.92
2019-03-05T13:32:58.860Z,973.88
2019-03-05T13:33:54.785Z,973.96
2019-03-05T13:34:53.690Z,973.89
2019-03-05T13:35:53.960Z,973.98
2019-03-05T13:36:55.002Z,974.01
2019-03-05T13:37:53.738Z,974.01
2019-03-05T13:38:54.095Z,974.04
2019-03-05T13:39:55.033Z,973.96
2019-03-05T13:40:53.945Z,974.01
2019-03-05T13:41:53.815Z,974.05
2019-03-05T13:42:53.530Z,974.00
2019-03-05T13:43:55.455Z,973.97
2019-03-05T13:44:53.558Z,974.00
2019-03-05T13:45:53.249Z,974.05
2019-03-05T13:46:53.678Z,974.02
2019-03-05T13:47:54.509Z,974.02
2019-03-05T13:48:58.404Z,974.08
2019-03-05T13:49:57.548Z,974.11
2019-03-05T13:50:53.049Z,974.13
2019-03-05T13:51:56.150Z,974.12
2019-03-05T13:52:52.967Z,974.08
2019-03-05T13:54:00.830Z,973.97
2019-03-05T13:54:52.897Z,974.07
2019-03-05T13:55:52.858Z,974.18
2019-03-05T13:56:52.859Z,974.13
2019-03-05T13:57:55.030Z,974.13
2019-03-05T13:58:52.850Z,974.21
2019-03-05T13:59:53.246Z,974.30
2019-03-05T14:00:52.759Z,974.22
2019-03-05T14:01:53.835Z,974.24
2019-03-05T14:02:53.147Z,974.23
2019-03-05T14:03:52.581Z,974.28
2019-03-05T14:04:52.619Z,974.30
2019-03-05T14:05:52.456Z,974.31
2019-03-05T14:06:52.422Z,974.32
2019-03-05T14:07:52.392Z,974.34
2019-03-05T14:08:52.360Z,974.33
2019-03-05T14:09:52.321Z,974.28
2019-03-05T14:10:52.256Z,974.29
2019-03-05T14:11:52.226Z,974.24
2019-03-05T14:12:52.296Z,974.28
2019-03-05T14:13:52.946Z,974.25
2019-03-05T14:14:52.112Z,974.27
2019-03-05T14:15:52.217Z,974.27
2019-03-05T14:16:52.021Z,974.29
2019-03-05T14:17:51.984Z,974.27